createdAt,value
2023-05-12T00:00:27.973Z,100.00
2023-05-12T00:02:55.680Z,100.00
2023-05-12T00:05:23.582Z,100.00
2023-05-12T00:07:51.264Z,100.00
2023-05-12T00:10:19.168Z,100.00
2023-05-12T00:12:46.953Z,100.00
2023-05-12T00:15:14.609Z,100.00
2023-05-12T00:17:43.517Z,100.00
2023-05-12T00:20:12.556Z,100.00
2023-05-12T00:22:40.303Z,100.00
2023-05-12T00:25:09.555Z,100.00
2023-05-12T00:27:37.207Z,100.00
2023-05-12T00:30:05.511Z,100.00
2023-05-12T00:32:33.190Z,100.00
2023-05-12T00:35:02.220Z,100.00
2023-05-12T00:37:29.847Z,100.00
2023-05-12T00:39:57.490Z,100.00
2023-05-12T00:42:25.161Z,100.00
2023-05-12T00:44:52.807Z,100.00
2023-05-12T00:47:21.626Z,100.00
2023-05-12T00:49:49.392Z,100.00
2023-05-12T00:52:18.396Z,100.00
2023-05-12T00:54:46.754Z,100.00
2023-05-12T00:57:14.421Z,100.00
2023-05-12T00:59:42.009Z,100.00
2023-05-12T01:02:09.637Z,100.00
2023-05-12T01:04:39.942Z,100.00
2023-05-12T01:07:11.202Z,100.00
2023-05-12T01:09:40.186Z,100.00
2023-05-12T01:12:08.248Z,100.00
2023-05-12T01:14:36.148Z,100.00
2023-05-12T01:17:10.111Z,100.00
2023-05-12T01:19:42.669Z,100.00
2023-05-12T01:22:10.694Z,100.00
2023-05-12T01:24:46.460Z,100.00
2023-05-12T01:27:17.222Z,100.00
2023-05-12T01:29:45.760Z,100.00
2023-05-12T01:32:14.144Z,100.00
2023-05-12T01:34:42.379Z,100.00
2023-05-12T01:37:10.338Z,100.00
2023-05-12T01:39:38.218Z,100.00
2023-05-12T01:42:06.831Z,100.00
2023-05-12T01:44:36.105Z,100.00
2023-05-12T01:47:03.749Z,100.00
2023-05-12T01:49:31.577Z,100.00
2023-05-12T01:51:59.159Z,100.00
2023-05-12T01:54:27.463Z,100.00
2023-05-12T01:56:55.088Z,100.00
2023-05-12T01:59:22.746Z,100.00
2023-05-12T02:01:51.734Z,100.00
2023-05-12T02:04:19.403Z,100.00
2023-05-12T02:06:47.371Z,100.00
2023-05-12T02:09:15.069Z,100.00
2023-05-12T02:11:42.659Z,100.00
2023-05-12T02:14:10.211Z,100.00
2023-05-12T02:16:37.894Z,100.00
2023-05-12T02:19:07.107Z,100.00
2023-05-12T02:21:34.764Z,100.00
2023-05-12T02:24:02.315Z,100.00
2023-05-12T02:26:29.920Z,100.00
2023-05-12T02:28:57.515Z,100.00
2023-05-12T02:31:25.836Z,100.00
2023-05-12T02:33:55.532Z,100.00
2023-05-12T02:36:24.445Z,100.00
2023-05-12T02:38:52.046Z,100.00
2023-05-12T02:41:19.776Z,100.00
2023-05-12T02:43:47.372Z,100.00
2023-05-12T02:46:15.167Z,100.00
2023-05-12T02:48:42.742Z,100.00
2023-05-12T02:51:10.369Z,100.00
2023-05-12T02:53:39.446Z,100.00
2023-05-12T02:56:07.793Z,100.00
2023-05-12T02:58:35.502Z,100.00
2023-05-12T03:01:10.559Z,100.00
2023-05-12T03:03:39.237Z,100.00
2023-05-12T03:06:07.562Z,100.00
2023-05-12T03:08:36.160Z,100.00
2023-05-12T03:11:05.493Z,100.00
2023-05-12T03:13:33.356Z,100.00
2023-05-12T03:16:01.565Z,100.00
2023-05-12T03:18:29.533Z,100.00
2023-05-12T03:20:57.264Z,100.00
2023-05-12T03:23:24.955Z,100.00
2023-05-12T03:25:52.837Z,100.00
2023-05-12T03:28:22.955Z,100.00
2023-05-12T03:30:50.707Z,100.00
2023-05-12T03:33:18.312Z,100.00
2023-05-12T03:35:45.880Z,100.00
2023-05-12T03:38:13.454Z,100.00
2023-05-12T03:40:41.104Z,100.00
2023-05-12T03:43:08.903Z,100.00
2023-05-12T03:45:37.816Z,100.00
2023-05-12T03:48:06.284Z,100.00
2023-05-12T03:50:34.006Z,100.00
2023-05-12T03:53:02.102Z,100.00
2023-05-12T03:55:29.880Z,100.00
2023-05-12T03:57:57.621Z,100.00
2023-05-12T04:00:25.364Z,100.00
2023-05-12T04:02:54.453Z,100.00
2023-05-12T04:05:22.134Z,100.00
2023-05-12T04:07:49.826Z,100.00
2023-05-12T04:10:17.700Z,100.00
2023-05-12T04:12:45.341Z,100.00
2023-05-12T04:15:14.720Z,100.00
2023-05-12T04:17:42.480Z,100.00
2023-05-12T04:20:12.290Z,100.00
2023-05-12T04:22:40.479Z,100.00
2023-05-12T04:25:08.878Z,100.00
2023-05-12T04:27:36.542Z,100.00
2023-05-12T04:30:04.315Z,100.00
2023-05-12T04:32:31.962Z,100.00
2023-05-12T04:34:59.579Z,100.00
2023-05-12T04:37:28.607Z,100.00
2023-05-12T04:39:56.191Z,100.00
2023-05-12T04:42:23.857Z,100.00
2023-05-12T04:44:51.466Z,100.00
2023-05-12T04:47:19.226Z,100.00
2023-05-12T04:49:46.851Z,100.00
2023-05-12T04:52:14.590Z,100.00
2023-05-12T04:54:43.684Z,100.00
2023-05-12T04:57:11.268Z,100.00
2023-05-12T04:59:41.219Z,100.00
2023-05-12T05:02:09.312Z,100.00
2023-05-12T05:04:37.656Z,100.00
2023-05-12T05:07:05.529Z,100.00
2023-05-12T05:09:34.511Z,100.00
2023-05-12T05:12:06.863Z,100.00
2023-05-12T05:14:34.594Z,100.00
2023-05-12T05:17:02.268Z,100.00
2023-05-12T05:22:03.389Z,100.00
2023-05-12T05:24:30.999Z,100.00
2023-05-12T05:26:59.634Z,100.00
2023-05-12T05:29:28.609Z,100.00
2023-05-12T05:31:56.402Z,100.00
2023-05-12T05:34:24.057Z,100.00
2023-05-12T05:36:51.698Z,100.00
2023-05-12T05:39:19.368Z,100.00
2023-05-12T05:41:47.049Z,100.00
2023-05-12T05:44:14.687Z,100.00
2023-05-12T05:46:43.817Z,100.00
2023-05-12T05:49:11.469Z,100.00
2023-05-12T05:51:39.166Z,100.00
2023-05-12T05:54:06.883Z,100.00
2023-05-12T05:56:35.941Z,100.00
2023-05-12T05:59:04.661Z,100.00
2023-05-12T06:01:32.466Z,100.00
2023-05-12T06:04:01.774Z,100.00
2023-05-12T06:06:30.211Z,100.00
2023-05-12T06:08:57.815Z,100.00
2023-05-12T06:11:25.618Z,100.00
2023-05-12T06:13:53.239Z,100.00
2023-05-12T06:16:20.835Z,100.00
2023-05-12T06:18:48.475Z,100.00
2023-05-12T06:21:17.515Z,100.00
2023-05-12T06:23:45.183Z,100.00
2023-05-12T06:26:13.192Z,100.00
2023-05-12T06:28:40.814Z,100.00
2023-05-12T06:31:08.968Z,100.00
2023-05-12T06:33:36.593Z,100.00
2023-05-12T06:36:04.383Z,100.00
2023-05-12T06:38:33.375Z,100.00
2023-05-12T06:41:00.977Z,100.00
2023-05-12T06:43:28.575Z,100.00
2023-05-12T06:45:56.739Z,100.00
2023-05-12T06:48:24.509Z,100.00
2023-05-12T06:50:52.588Z,100.00
2023-05-12T06:53:20.145Z,100.00
2023-05-12T06:55:50.990Z,100.00
2023-05-12T06:58:18.978Z,100.00
2023-05-12T07:00:46.625Z,100.00
2023-05-12T07:03:14.660Z,100.00
2023-05-12T07:05:42.759Z,100.00
2023-05-12T07:08:10.388Z,100.00
2023-05-12T07:10:37.996Z,100.00
2023-05-12T07:13:06.956Z,100.00
2023-05-12T07:15:34.571Z,100.00
2023-05-12T07:18:02.278Z,100.00
2023-05-12T07:20:29.860Z,100.00
2023-05-12T07:22:57.713Z,100.00
2023-05-12T07:25:25.386Z,100.00
2023-05-12T07:27:53.101Z,100.00
2023-05-12T07:30:22.730Z,100.00
2023-05-12T07:32:50.414Z,100.00
2023-05-12T07:35:18.277Z,100.00
2023-05-12T07:37:46.276Z,100.00
2023-05-12T07:40:14.097Z,100.00
2023-05-12T07:42:41.753Z,100.00
2023-05-12T07:45:09.766Z,100.00
2023-05-12T07:47:38.773Z,100.00
2023-05-12T07:50:07.709Z,100.00
2023-05-12T07:52:35.400Z,100.00
2023-05-12T07:55:03.077Z,100.00
2023-05-12T07:57:30.738Z,100.00
2023-05-12T07:59:59.580Z,100.00
2023-05-12T08:02:28.225Z,100.00
2023-05-12T08:04:57.389Z,100.00
2023-05-12T08:07:25.065Z,100.00
2023-05-12T08:09:52.722Z,100.00
2023-05-12T08:12:21.021Z,100.00
2023-05-12T08:14:48.677Z,100.00
2023-05-12T08:17:16.317Z,100.00
2023-05-12T08:19:44.023Z,100.00
2023-05-12T08:22:13.039Z,100.00
2023-05-12T08:24:40.643Z,100.00
2023-05-12T08:27:08.240Z,100.00
2023-05-12T08:29:36.113Z,100.00
2023-05-12T08:32:04.069Z,100.00
2023-05-12T08:34:31.942Z,100.00
2023-05-12T08:36:59.677Z,100.00
2023-05-12T08:39:30.932Z,100.00
2023-05-12T08:42:06.834Z,100.00
2023-05-12T08:44:34.751Z,100.00
2023-05-12T08:47:02.908Z,100.00
2023-05-12T08:49:32.838Z,100.00
2023-05-12T08:52:02.557Z,100.00
2023-05-12T08:54:31.566Z,100.00
2023-05-12T08:59:29.988Z,100.00
2023-05-12T09:01:57.813Z,100.00
2023-05-12T09:04:25.485Z,100.00
2023-05-12T09:06:55.594Z,100.00
2023-05-12T09:09:24.835Z,100.00
2023-05-12T09:11:58.069Z,100.00
2023-05-12T09:14:26.939Z,100.00
2023-05-12T09:16:57.740Z,100.00
2023-05-12T09:19:25.526Z,100.00
2023-05-12T09:21:53.832Z,100.00
2023-05-12T09:24:22.307Z,100.00
2023-05-12T09:26:51.820Z,100.00
2023-05-12T09:29:31.383Z,100.00
2023-05-12T09:32:03.187Z,100.00
2023-05-12T09:34:32.085Z,100.00
2023-05-12T09:37:01.030Z,100.00
2023-05-12T09:39:28.858Z,100.00
2023-05-12T09:41:56.738Z,100.00
2023-05-12T09:44:26.349Z,100.00
2023-05-12T09:46:54.401Z,100.00
2023-05-12T09:49:23.837Z,100.00
2023-05-12T09:51:53.202Z,100.00
2023-05-12T09:54:28.197Z,100.00
2023-05-12T09:56:59.575Z,100.00
2023-05-12T09:59:32.664Z,100.00
2023-05-12T10:02:03.577Z,100.00
2023-05-12T10:04:34.006Z,100.00
2023-05-12T10:07:01.728Z,100.00
2023-05-12T10:09:33.896Z,99.82
2023-05-12T10:12:03.003Z,99.24
2023-05-12T10:14:32.555Z,100.00
2023-05-12T10:17:00.891Z,97.81
2023-05-12T10:19:30.028Z,99.23
2023-05-12T10:21:58.755Z,98.94
2023-05-12T10:24:27.408Z,99.60
2023-05-12T10:26:56.507Z,97.54
2023-05-12T10:29:29.385Z,99.59
2023-05-12T10:31:58.897Z,98.76
2023-05-12T10:34:31.296Z,98.88
2023-05-12T10:36:59.272Z,97.08
2023-05-12T10:39:29.646Z,98.93
2023-05-12T10:42:02.515Z,98.89
2023-05-12T10:44:30.143Z,98.00
2023-05-12T10:46:59.742Z,95.41
2023-05-12T10:49:34.709Z,96.56
2023-05-12T10:52:02.602Z,95.40
2023-05-12T10:54:30.175Z,94.47
2023-05-12T10:57:00.119Z,91.20
2023-05-12T10:59:28.737Z,88.85
2023-05-12T11:02:03.655Z,90.25
2023-05-12T11:04:44.476Z,92.41
2023-05-12T11:07:14.340Z,91.97
2023-05-12T11:09:53.634Z,93.20
2023-05-12T11:12:24.502Z,93.96
2023-05-12T11:14:52.151Z,94.77
2023-05-12T11:17:21.114Z,95.56
2023-05-12T11:19:50.188Z,94.39
2023-05-12T11:22:19.229Z,93.86
2023-05-12T11:24:47.850Z,95.98
2023-05-12T11:27:17.502Z,95.48
2023-05-12T11:29:47.126Z,95.21
2023-05-12T11:32:16.642Z,95.17
2023-05-12T11:34:47.118Z,95.80
2023-05-12T11:37:14.812Z,95.46
2023-05-12T11:39:42.517Z,94.75
2023-05-12T11:42:13.289Z,96.12
2023-05-12T11:44:48.032Z,96.49
2023-05-12T11:47:16.895Z,96.36
2023-05-12T11:49:50.688Z,95.45
2023-05-12T11:52:19.452Z,94.88
2023-05-12T11:54:51.050Z,94.83
2023-05-12T11:57:26.963Z,92.18
2023-05-12T11:59:58.845Z,91.49
2023-05-12T12:02:26.655Z,92.53
2023-05-12T12:04:55.626Z,91.75
2023-05-12T12:07:30.665Z,91.54
2023-05-12T12:09:58.252Z,92.26
2023-05-12T12:12:26.077Z,91.07
2023-05-12T12:14:56.585Z,92.04
2023-05-12T12:17:30.544Z,93.15
2023-05-12T12:19:59.859Z,93.00
2023-05-12T12:22:27.961Z,91.41
2023-05-12T12:24:55.521Z,89.88
2023-05-12T12:27:23.161Z,90.45
2023-05-12T12:29:51.237Z,90.53
2023-05-12T12:32:18.852Z,91.15
2023-05-12T12:34:48.442Z,91.05
2023-05-12T12:37:17.639Z,92.44
2023-05-12T12:39:45.272Z,93.99
2023-05-12T12:42:13.315Z,92.95
2023-05-12T12:44:41.061Z,94.99
2023-05-12T12:47:08.697Z,95.21
2023-05-12T12:49:36.345Z,95.81
2023-05-12T12:52:04.040Z,97.07
2023-05-12T12:54:33.153Z,98.71
2023-05-12T12:57:00.734Z,99.69
2023-05-12T12:59:28.364Z,94.18
2023-05-12T13:01:59.723Z,92.16
2023-05-12T13:04:27.440Z,92.68
2023-05-12T13:06:55.006Z,93.84
2023-05-12T13:09:22.905Z,92.73
2023-05-12T13:11:51.886Z,93.45
2023-05-12T13:14:19.520Z,94.33
2023-05-12T13:16:47.129Z,94.01
2023-05-12T13:19:15.059Z,97.06
2023-05-12T13:21:42.993Z,100.00
2023-05-12T13:24:10.616Z,100.00
2023-05-12T13:26:38.263Z,100.00
2023-05-12T13:29:07.548Z,100.00
2023-05-12T13:31:35.207Z,100.00
2023-05-12T13:34:02.884Z,100.00
2023-05-12T13:36:32.258Z,100.00
2023-05-12T13:38:59.891Z,100.00
2023-05-12T13:41:27.480Z,100.00
2023-05-12T13:43:55.114Z,100.00
2023-05-12T13:46:24.282Z,100.00
2023-05-12T13:48:52.670Z,100.00
2023-05-12T13:51:20.496Z,100.00
2023-05-12T13:53:48.204Z,100.00
2023-05-12T13:56:16.608Z,100.00
2023-05-12T13:58:44.535Z,100.00
2023-05-12T14:01:12.496Z,100.00
2023-05-12T14:03:42.050Z,100.00
2023-05-12T14:06:10.729Z,100.00
2023-05-12T14:08:38.473Z,100.00
2023-05-12T14:11:06.089Z,100.00
2023-05-12T14:13:33.698Z,100.00
2023-05-12T14:16:01.278Z,100.00
2023-05-12T14:18:28.970Z,100.00
2023-05-12T14:20:58.014Z,100.00
2023-05-12T14:23:25.688Z,100.00
2023-05-12T14:25:53.368Z,99.15
2023-05-12T14:28:22.878Z,100.00
2023-05-12T14:30:50.857Z,100.00
2023-05-12T14:33:18.494Z,100.00
2023-05-12T14:35:55.628Z,99.95
2023-05-12T14:38:25.088Z,100.00
2023-05-12T14:40:52.643Z,100.00
2023-05-12T14:43:20.294Z,99.81
2023-05-12T14:45:54.217Z,99.41
2023-05-12T14:48:22.521Z,100.00
2023-05-12T14:50:53.143Z,100.00
2023-05-12T14:53:20.870Z,97.75
2023-05-12T14:55:50.824Z,98.91
2023-05-12T14:58:18.636Z,98.13
2023-05-12T15:00:47.329Z,97.50
2023-05-12T15:03:15.500Z,100.00
2023-05-12T15:08:14.618Z,100.00
2023-05-12T15:10:42.663Z,100.00
2023-05-12T15:13:12.511Z,100.00
2023-05-12T15:15:40.621Z,100.00
2023-05-12T15:18:08.841Z,100.00
2023-05-12T15:20:36.841Z,100.00
2023-05-12T15:23:04.659Z,99.69
2023-05-12T15:25:32.923Z,99.92
2023-05-12T15:28:00.891Z,99.32
2023-05-12T15:30:30.333Z,96.90
2023-05-12T15:32:58.441Z,96.57
2023-05-12T15:35:27.627Z,98.03
2023-05-12T15:37:55.550Z,97.46
2023-05-12T15:40:23.790Z,97.94
2023-05-12T15:42:51.835Z,96.88
2023-05-12T15:45:20.080Z,97.23
2023-05-12T15:47:49.557Z,97.95
2023-05-12T15:50:19.864Z,98.50
2023-05-12T15:52:48.006Z,97.87
2023-05-12T15:55:16.730Z,96.82
2023-05-12T15:57:45.043Z,98.03
2023-05-12T16:00:14.268Z,96.15
2023-05-12T16:02:42.332Z,97.74
2023-05-12T16:05:12.668Z,98.57
2023-05-12T16:07:40.605Z,96.34
2023-05-12T16:10:09.337Z,96.50
2023-05-12T16:12:37.398Z,97.39
2023-05-12T16:15:05.982Z,98.81
2023-05-12T16:17:33.926Z,95.99
2023-05-12T16:20:02.211Z,96.17
2023-05-12T16:22:31.745Z,94.32
2023-05-12T16:24:59.717Z,94.19
2023-05-12T16:27:27.541Z,94.16
2023-05-12T16:29:55.661Z,92.79
2023-05-12T16:32:23.756Z,91.15
2023-05-12T16:34:54.641Z,92.00
2023-05-12T16:37:22.884Z,91.50
2023-05-12T16:39:52.333Z,89.02
2023-05-12T16:42:20.497Z,88.13
2023-05-12T16:44:48.407Z,89.17
2023-05-12T16:47:16.580Z,90.14
2023-05-12T16:49:44.466Z,91.74
2023-05-12T16:52:14.894Z,92.45
2023-05-12T16:54:42.846Z,90.59
2023-05-12T16:57:12.505Z,90.49
2023-05-12T16:59:40.413Z,91.04
2023-05-12T17:02:08.918Z,91.03
2023-05-12T17:04:36.903Z,90.80
2023-05-12T17:07:04.814Z,91.66
2023-05-12T17:09:32.813Z,92.16
2023-05-12T17:12:00.860Z,93.03
2023-05-12T17:14:30.399Z,92.94
2023-05-12T17:16:58.321Z,93.11
2023-05-12T17:19:26.818Z,94.32
2023-05-12T17:21:55.006Z,93.15
2023-05-12T17:24:23.079Z,94.10
2023-05-12T17:26:51.508Z,94.10
2023-05-12T17:29:19.615Z,92.69
2023-05-12T17:31:49.095Z,93.35
2023-05-12T17:34:17.513Z,93.54
2023-05-12T17:36:45.548Z,94.09
2023-05-12T17:39:15.953Z,95.20
2023-05-12T17:41:44.186Z,95.84
2023-05-12T17:44:12.330Z,96.42
2023-05-12T17:46:40.610Z,97.73
2023-05-12T17:49:09.604Z,97.14
2023-05-12T17:51:37.189Z,96.26
2023-05-12T17:54:04.832Z,95.85
2023-05-12T17:56:32.469Z,95.92
2023-05-12T17:59:00.153Z,94.59
2023-05-12T18:01:27.908Z,94.68
2023-05-12T18:03:55.612Z,95.52
2023-05-12T18:06:24.646Z,94.83
2023-05-12T18:08:52.291Z,93.42
2023-05-12T18:11:19.920Z,93.98
2023-05-12T18:13:47.497Z,94.43
2023-05-12T18:16:27.561Z,93.91
2023-05-12T18:18:56.535Z,95.08
2023-05-12T18:21:25.793Z,95.57
2023-05-12T18:23:53.405Z,94.65
2023-05-12T18:26:21.165Z,94.71
2023-05-12T18:28:49.292Z,95.06
2023-05-12T18:31:19.604Z,94.84
2023-05-12T18:33:48.193Z,94.77
2023-05-12T18:36:16.300Z,95.60
2023-05-12T18:38:45.831Z,95.87
2023-05-12T18:41:14.117Z,95.45
2023-05-12T18:43:44.075Z,97.24
2023-05-12T18:46:12.889Z,97.52
2023-05-12T18:48:41.112Z,98.81
2023-05-12T18:51:09.564Z,99.68
2023-05-12T18:53:37.795Z,100.00
2023-05-12T18:56:07.450Z,100.00
2023-05-12T18:58:35.603Z,100.00
2023-05-12T19:01:05.136Z,100.00
2023-05-12T19:03:33.873Z,100.00
2023-05-12T19:06:02.048Z,100.00
2023-05-12T19:08:30.059Z,100.00
2023-05-12T19:10:57.929Z,100.00
2023-05-12T19:13:27.483Z,100.00
2023-05-12T19:15:55.536Z,100.00
2023-05-12T19:18:23.570Z,100.00
2023-05-12T19:20:51.676Z,100.00
2023-05-12T19:23:19.464Z,100.00
2023-05-12T19:25:47.495Z,100.00
2023-05-12T19:28:15.868Z,100.00
2023-05-12T19:30:45.447Z,100.00
2023-05-12T19:33:14.173Z,100.00
2023-05-12T19:35:43.274Z,100.00
2023-05-12T19:38:11.207Z,100.00
2023-05-12T19:40:39.237Z,100.00
2023-05-12T19:43:10.167Z,100.00
2023-05-12T19:45:38.171Z,100.00
2023-05-12T19:48:08.323Z,100.00
2023-05-12T19:50:36.272Z,100.00
2023-05-12T19:53:04.038Z,100.00
2023-05-12T19:55:31.960Z,100.00
2023-05-12T19:58:03.385Z,99.94
2023-05-12T20:00:31.623Z,100.00
2023-05-12T20:02:59.722Z,100.00
2023-05-12T20:05:29.119Z,100.00
2023-05-12T20:07:57.270Z,100.00
2023-05-12T20:10:25.299Z,100.00
2023-05-12T20:12:53.324Z,100.00
2023-05-12T20:15:21.803Z,100.00
2023-05-12T20:17:50.291Z,100.00
2023-05-12T20:20:18.278Z,100.00
2023-05-12T20:22:47.509Z,100.00
2023-05-12T20:25:16.252Z,100.00
2023-05-12T20:27:44.487Z,100.00
2023-05-12T20:30:13.547Z,100.00
2023-05-12T20:32:42.051Z,100.00
2023-05-12T20:35:10.767Z,100.00
2023-05-12T20:37:40.663Z,100.00
2023-05-12T20:40:11.214Z,100.00
2023-05-12T20:42:39.152Z,100.00
2023-05-12T20:45:08.878Z,100.00
2023-05-12T20:47:37.363Z,100.00
2023-05-12T20:50:06.363Z,100.00
2023-05-12T20:52:34.790Z,100.00
2023-05-12T20:55:02.696Z,100.00
2023-05-12T20:57:32.290Z,100.00
2023-05-12T21:00:00.616Z,100.00
2023-05-12T21:02:29.388Z,100.00
2023-05-12T21:04:57.575Z,100.00
2023-05-12T21:07:25.270Z,100.00
2023-05-12T21:09:52.911Z,100.00
2023-05-12T21:12:20.831Z,100.00
2023-05-12T21:14:49.816Z,100.00
2023-05-12T21:17:17.445Z,100.00
2023-05-12T21:19:45.027Z,100.00
2023-05-12T21:22:12.953Z,100.00
2023-05-12T21:24:40.664Z,100.00
2023-05-12T21:27:09.089Z,100.00
2023-05-12T21:29:36.939Z,100.00
2023-05-12T21:32:06.621Z,100.00
2023-05-12T21:34:35.911Z,100.00
2023-05-12T21:37:04.165Z,100.00
2023-05-12T21:39:32.058Z,100.00
2023-05-12T21:42:00.084Z,99.69
2023-05-12T21:44:27.954Z,99.88
2023-05-12T21:46:55.828Z,99.70
2023-05-12T21:49:25.057Z,100.00
2023-05-12T21:51:55.932Z,100.00
2023-05-12T21:54:23.850Z,100.00
2023-05-12T21:56:51.648Z,100.00
2023-05-12T21:59:20.715Z,100.00
2023-05-12T22:01:48.804Z,100.00
2023-05-12T22:04:16.871Z,100.00
2023-05-12T22:06:46.154Z,100.00
2023-05-12T22:09:14.437Z,100.00
2023-05-12T22:11:42.454Z,100.00
2023-05-12T22:14:10.312Z,100.00
2023-05-12T22:16:41.885Z,100.00
2023-05-12T22:19:10.958Z,100.00
2023-05-12T22:21:39.048Z,100.00
2023-05-12T22:24:09.304Z,100.00
2023-05-12T22:26:37.242Z,100.00
2023-05-12T22:29:05.050Z,100.00
2023-05-12T22:31:32.710Z,100.00
2023-05-12T22:34:00.306Z,100.00
2023-05-12T22:36:27.955Z,100.00
2023-05-12T22:38:55.537Z,100.00
2023-05-12T22:41:24.629Z,100.00
2023-05-12T22:43:52.207Z,100.00
2023-05-12T22:46:19.955Z,100.00
2023-05-12T22:48:47.808Z,100.00
2023-05-12T22:51:15.798Z,100.00
2023-05-12T22:53:43.527Z,100.00
2023-05-12T22:56:11.228Z,100.00
2023-05-12T22:58:40.399Z,100.00
2023-05-12T23:01:08.056Z,100.00
2023-05-12T23:03:35.858Z,100.00
2023-05-12T23:06:03.533Z,100.00
2023-05-12T23:08:31.498Z,100.00
2023-05-12T23:10:59.144Z,100.00
2023-05-12T23:13:26.740Z,100.00
2023-05-12T23:15:55.706Z,100.00
2023-05-12T23:18:23.451Z,100.00
2023-05-12T23:20:51.052Z,100.00
2023-05-12T23:23:18.704Z,100.00
2023-05-12T23:25:47.517Z,100.00
2023-05-12T23:28:15.131Z,100.00
2023-05-12T23:30:42.730Z,100.00
2023-05-12T23:33:11.735Z,100.00
2023-05-12T23:35:39.419Z,100.00
2023-05-12T23:38:07.043Z,100.00
2023-05-12T23:40:38.843Z,100.00
2023-05-12T23:43:06.605Z,100.00
2023-05-12T23:45:34.549Z,100.00
2023-05-12T23:48:02.248Z,100.00
2023-05-12T23:50:31.218Z,100.00
2023-05-12T23:52:58.901Z,100.00
2023-05-12T23:55:26.491Z,100.00
2023-05-12T23:57:54.064Z,100.00
